This is the latest recevied weather packets stored in our database for station/object YF9UAG-17. If no packets are shown the sender has not sent any weather packets the latest 10 day(s).
| Time | Temp. | Humidity | Pressure | Rain* | Wind** | Luminosity | Snow |
|---|---|---|---|---|---|---|---|
| 1787820567 | 32.22° C | 43% | 1032 hPa | - | - | - | - |
| 1787819964 | 32.22° C | 43% | 1031.9 hPa | - | - | - | - |
| 1787819362 | 31.67° C | 46% | 1031.9 hPa | - | - | - | - |
| 1787818760 | 32.22° C | 45% | 1031.9 hPa | - | - | - | - |
| 1787818157 | 32.78° C | 43% | 1031.8 hPa | - | - | - | - |
| 1787817555 | 31.67° C | 46% | 1031.7 hPa | - | - | - | - |
| 1787816953 | 32.78° C | 46% | 1031.8 hPa | - | - | - | - |
| 1787816348 | 32.78° C | 46% | 1031.7 hPa | - | - | - | - |
| 1787815746 | 32.78° C | 43% | 1031.8 hPa | - | - | - | - |
| 1787815143 | 33.89° C | 39% | 1031.8 hPa | - | - | - | - |
| 1787814540 | 31.11° C | 45% | 1031.8 hPa | - | - | - | - |
| 1787813938 | 31.67° C | 46% | 1031.9 hPa | - | - | - | - |
| 1787813335 | 33.89° C | 41% | 1032.1 hPa | - | - | - | - |
| 1787812729 | 33.33° C | 42% | 1032.2 hPa | - | - | - | - |
| 1787812126 | 30.56° C | 49% | 1032.2 hPa | - | - | - | - |
| 1787811524 | 30° C | 50% | 1032.3 hPa | - | - | - | - |
| 1787810922 | 30.56° C | 47% | 1032.4 hPa | - | - | - | - |
| 1787810319 | 31.67° C | 43% | 1032.5 hPa | - | - | - | - |
| 1787809717 | 30° C | 47% | 1032.7 hPa | - | - | - | - |
| 1787809114 | 31.67° C | 41% | 1032.8 hPa | - | - | - | - |
| 1787808512 | 29.44° C | 50% | 1033.1 hPa | - | - | - | - |
| 1787807909 | 30° C | 50% | 1033.3 hPa | - | - | - | - |
| 1787807307 | 30° C | 51% | 1033.5 hPa | - | - | - | - |
| 1787806705 | 29.44° C | 51% | 1033.8 hPa | - | - | - | - |
| 1787806103 | 29.44° C | 52% | 1034.1 hPa | - | - | - | - |
* Rain since midnight (hover to see other rain measurements)
** Current wind speed in m/s (hover to see current wind gust speed)